sensor_id;sensor_type;location;lat;lon;timestamp;pressure;altitude;pressure_sealevel;temperature;humidity
64886;BME280;51514;52.206;5.114;2023-02-19T00:02:15;101798.25;;;10.83;100.00
64886;BME280;51514;52.206;5.114;2023-02-19T00:04:40;101799.13;;;10.83;100.00
64886;BME280;51514;52.206;5.114;2023-02-19T00:07:05;101801.53;;;10.86;100.00
64886;BME280;51514;52.206;5.114;2023-02-19T00:09:31;101799.97;;;10.84;100.00
64886;BME280;51514;52.206;5.114;2023-02-19T00:11:56;101814.31;;;10.84;100.00
64886;BME280;51514;52.206;5.114;2023-02-19T00:14:21;101816.47;;;10.90;100.00
64886;BME280;51514;52.206;5.114;2023-02-19T00:16:47;101811.22;;;10.89;100.00
64886;BME280;51514;52.206;5.114;2023-02-19T00:19:15;101814.78;;;10.89;100.00
64886;BME280;51514;52.206;5.114;2023-02-19T00:21:41;101811.22;;;10.89;100.00
64886;BME280;51514;52.206;5.114;2023-02-19T00:24:09;101820.44;;;10.86;100.00
64886;BME280;51514;52.206;5.114;2023-02-19T00:26:37;101811.91;;;10.81;100.00
64886;BME280;51514;52.206;5.114;2023-02-19T00:29:03;101820.81;;;10.82;100.00
64886;BME280;51514;52.206;5.114;2023-02-19T00:31:31;101813.31;;;10.85;100.00
64886;BME280;51514;52.206;5.114;2023-02-19T00:33:59;101816.03;;;10.85;100.00
64886;BME280;51514;52.206;5.114;2023-02-19T00:36:26;101815.03;;;10.86;100.00
64886;BME280;51514;52.206;5.114;2023-02-19T00:38:52;101816.75;;;10.87;100.00
64886;BME280;51514;52.206;5.114;2023-02-19T00:41:19;101818.31;;;10.90;100.00
64886;BME280;51514;52.206;5.114;2023-02-19T00:43:56;101822.56;;;10.92;100.00
64886;BME280;51514;52.206;5.114;2023-02-19T00:46:34;101819.59;;;10.95;100.00
64886;BME280;51514;52.206;5.114;2023-02-19T00:49:00;101823.59;;;11.01;100.00
64886;BME280;51514;52.206;5.114;2023-02-19T00:51:29;101825.59;;;10.99;100.00
64886;BME280;51514;52.206;5.114;2023-02-19T00:53:55;101824.88;;;10.97;100.00
64886;BME280;51514;52.206;5.114;2023-02-19T00:56:21;101822.16;;;10.97;100.00
64886;BME280;51514;52.206;5.114;2023-02-19T00:58:47;101837.78;;;10.93;100.00
64886;BME280;51514;52.206;5.114;2023-02-19T01:01:12;101830.00;;;11.00;100.00
64886;BME280;51514;52.206;5.114;2023-02-19T01:03:38;101845.59;;;10.96;100.00
64886;BME280;51514;52.206;5.114;2023-02-19T01:06:06;101844.59;;;10.97;100.00
64886;BME280;51514;52.206;5.114;2023-02-19T01:08:32;101837.50;;;10.96;100.00
64886;BME280;51514;52.206;5.114;2023-02-19T01:10:58;101834.38;;;10.91;100.00
64886;BME280;51514;52.206;5.114;2023-02-19T01:13:24;101834.94;;;10.95;100.00
64886;BME280;51514;52.206;5.114;2023-02-19T01:15:49;101838.50;;;10.95;100.00
64886;BME280;51514;52.206;5.114;2023-02-19T01:18:15;101844.03;;;10.94;100.00
64886;BME280;51514;52.206;5.114;2023-02-19T01:20:41;101842.47;;;10.91;100.00
64886;BME280;51514;52.206;5.114;2023-02-19T01:23:07;101840.63;;;10.92;100.00
64886;BME280;51514;52.206;5.114;2023-02-19T01:25:32;101843.59;;;10.89;100.00
64886;BME280;51514;52.206;5.114;2023-02-19T01:27:58;101846.56;;;10.86;100.00
64886;BME280;51514;52.206;5.114;2023-02-19T01:30:23;101843.97;;;10.84;100.00
64886;BME280;51514;52.206;5.114;2023-02-19T01:32:49;101848.53;;;10.84;100.00
64886;BME280;51514;52.206;5.114;2023-02-19T01:35:14;101849.97;;;10.88;100.00
64886;BME280;51514;52.206;5.114;2023-02-19T01:37:40;101851.94;;;10.86;100.00
64886;BME280;51514;52.206;5.114;2023-02-19T01:40:05;101848.25;;;10.87;100.00
64886;BME280;51514;52.206;5.114;2023-02-19T01:42:31;101844.13;;;10.83;100.00
64886;BME280;51514;52.206;5.114;2023-02-19T01:47:54;101854.75;;;10.75;100.00
64886;BME280;51514;52.206;5.114;2023-02-19T01:50:22;101863.09;;;10.72;100.00
64886;BME280;51514;52.206;5.114;2023-02-19T01:52:49;101853.03;;;10.74;100.00
64886;BME280;51514;52.206;5.114;2023-02-19T01:55:15;101862.56;;;10.78;100.00
64886;BME280;51514;52.206;5.114;2023-02-19T01:57:45;101864.53;;;10.76;100.00
64886;BME280;51514;52.206;5.114;2023-02-19T02:00:15;101857.69;;;10.72;100.00
64886;BME280;51514;52.206;5.114;2023-02-19T02:02:42;101858.44;;;10.74;100.00
64886;BME280;51514;52.206;5.114;2023-02-19T02:05:18;101857.00;;;10.70;100.00
64886;BME280;51514;52.206;5.114;2023-02-19T02:07:47;101857.44;;;10.75;100.00
64886;BME280;51514;52.206;5.114;2023-02-19T02:10:32;101862.84;;;10.75;100.00
64886;BME280;51514;52.206;5.114;2023-02-19T02:12:57;101867.78;;;10.70;100.00
64886;BME280;51514;52.206;5.114;2023-02-19T02:15:28;101862.09;;;10.73;100.00
64886;BME280;51514;52.206;5.114;2023-02-19T02:18:07;101867.50;;;10.73;100.00
64886;BME280;51514;52.206;5.114;2023-02-19T02:21:02;101864.69;;;10.74;100.00
64886;BME280;51514;52.206;5.114;2023-02-19T02:23:37;101877.19;;;10.75;100.00
64886;BME280;51514;52.206;5.114;2023-02-19T02:31:46;101869.50;;;10.71;100.00
64886;BME280;51514;52.206;5.114;2023-02-19T02:34:17;101871.78;;;10.75;100.00
64886;BME280;51514;52.206;5.114;2023-02-19T02:36:48;101868.34;;;10.73;100.00
64886;BME280;51514;52.206;5.114;2023-02-19T02:39:19;101874.59;;;10.74;100.00
64886;BME280;51514;52.206;5.114;2023-02-19T02:41:50;101878.28;;;10.73;100.00
64886;BME280;51514;52.206;5.114;2023-02-19T02:44:39;101874.44;;;10.66;100.00
64886;BME280;51514;52.206;5.114;2023-02-19T02:47:06;101878.50;;;10.60;100.00
64886;BME280;51514;52.206;5.114;2023-02-19T02:49:52;101874.69;;;10.63;100.00
64886;BME280;51514;52.206;5.114;2023-02-19T02:52:30;101881.06;;;10.61;100.00
64886;BME280;51514;52.206;5.114;2023-02-19T02:55:15;101880.81;;;10.65;100.00
64886;BME280;51514;52.206;5.114;2023-02-19T02:57:40;101882.66;;;10.64;100.00
64886;BME280;51514;52.206;5.114;2023-02-19T03:00:06;101876.66;;;10.60;100.00
64886;BME280;51514;52.206;5.114;2023-02-19T03:02:32;101883.06;;;10.59;100.00
64886;BME280;51514;52.206;5.114;2023-02-19T03:10:32;101899.81;;;10.63;100.00
64886;BME280;51514;52.206;5.114;2023-02-19T03:13:01;101897.53;;;10.58;100.00
64886;BME280;51514;52.206;5.114;2023-02-19T03:16:01;101904.19;;;10.54;100.00
64886;BME280;51514;52.206;5.114;2023-02-19T03:18:49;101911.16;;;10.57;100.00
64886;BME280;51514;52.206;5.114;2023-02-19T03:21:37;101897.81;;;10.55;100.00
64886;BME280;51514;52.206;5.114;2023-02-19T03:24:06;101904.31;;;10.53;100.00
64886;BME280;51514;52.206;5.114;2023-02-19T03:26:54;101912.53;;;10.51;100.00
64886;BME280;51514;52.206;5.114;2023-02-19T03:29:22;101913.78;;;10.47;100.00
64886;BME280;51514;52.206;5.114;2023-02-19T03:31:54;101920.16;;;10.46;100.00
64886;BME280;51514;52.206;5.114;2023-02-19T03:34:34;101911.09;;;10.47;100.00
64886;BME280;51514;52.206;5.114;2023-02-19T03:37:07;101915.28;;;10.40;100.00
64886;BME280;51514;52.206;5.114;2023-02-19T03:39:35;101912.34;;;10.43;100.00
64886;BME280;51514;52.206;5.114;2023-02-19T03:45:13;101921.03;;;10.47;100.00
64886;BME280;51514;52.206;5.114;2023-02-19T03:47:53;101919.88;;;10.49;100.00
64886;BME280;51514;52.206;5.114;2023-02-19T03:53:35;101928.25;;;10.46;100.00
64886;BME280;51514;52.206;5.114;2023-02-19T03:56:10;101934.03;;;10.42;100.00
64886;BME280;51514;52.206;5.114;2023-02-19T03:58:53;101934.63;;;10.45;100.00
64886;BME280;51514;52.206;5.114;2023-02-19T04:01:29;101942.72;;;10.45;100.00
64886;BME280;51514;52.206;5.114;2023-02-19T04:04:16;101947.88;;;10.48;100.00
64886;BME280;51514;52.206;5.114;2023-02-19T04:06:44;101944.16;;;10.49;100.00
64886;BME280;51514;52.206;5.114;2023-02-19T04:09:11;101946.59;;;10.52;100.00
64886;BME280;51514;52.206;5.114;2023-02-19T04:11:39;101954.13;;;10.49;100.00
64886;BME280;51514;52.206;5.114;2023-02-19T04:14:24;101949.84;;;10.46;99.99
64886;BME280;51514;52.206;5.114;2023-02-19T04:16:55;101951.66;;;10.46;100.00
64886;BME280;51514;52.206;5.114;2023-02-19T04:19:24;101956.22;;;10.45;99.67
64886;BME280;51514;52.206;5.114;2023-02-19T04:21:52;101961.59;;;10.45;99.78
64886;BME280;51514;52.206;5.114;2023-02-19T04:24:30;101965.03;;;10.47;99.87
64886;BME280;51514;52.206;5.114;2023-02-19T04:26:56;101953.09;;;10.50;99.89
64886;BME280;51514;52.206;5.114;2023-02-19T04:29:22;101974.28;;;10.54;99.59
64886;BME280;51514;52.206;5.114;2023-02-19T04:31:47;101974.41;;;10.53;99.41
64886;BME280;51514;52.206;5.114;2023-02-19T04:34:13;101977.84;;;10.55;99.25
64886;BME280;51514;52.206;5.114;2023-02-19T04:36:38;101988.88;;;10.52;98.67
64886;BME280;51514;52.206;5.114;2023-02-19T04:39:03;101980.91;;;10.50;99.04
64886;BME280;51514;52.206;5.114;2023-02-19T04:41:29;101991.72;;;10.50;99.31
64886;BME280;51514;52.206;5.114;2023-02-19T04:43:54;101990.53;;;10.43;98.66
64886;BME280;51514;52.206;5.114;2023-02-19T04:46:20;101996.53;;;10.47;99.02
64886;BME280;51514;52.206;5.114;2023-02-19T04:48:45;101997.63;;;10.44;99.31
64886;BME280;51514;52.206;5.114;2023-02-19T04:51:10;102003.47;;;10.49;99.01
64886;BME280;51514;52.206;5.114;2023-02-19T04:53:36;102013.03;;;10.53;99.05
64886;BME280;51514;52.206;5.114;2023-02-19T04:56:10;102013.03;;;10.53;98.54
64886;BME280;51514;52.206;5.114;2023-02-19T04:58:36;102014.13;;;10.51;98.28
64886;BME280;51514;52.206;5.114;2023-02-19T05:01:02;102025.91;;;10.50;98.30
64886;BME280;51514;52.206;5.114;2023-02-19T05:03:27;102024.81;;;10.52;97.86
64886;BME280;51514;52.206;5.114;2023-02-19T05:05:53;102021.53;;;10.49;97.69
64886;BME280;51514;52.206;5.114;2023-02-19T05:08:18;102020.66;;;10.48;97.82
64886;BME280;51514;52.206;5.114;2023-02-19T05:10:44;102040.41;;;10.49;97.62
64886;BME280;51514;52.206;5.114;2023-02-19T05:13:09;102035.13;;;10.47;97.51
64886;BME280;51514;52.206;5.114;2023-02-19T05:15:36;102038.53;;;10.49;97.73
64886;BME280;51514;52.206;5.114;2023-02-19T05:18:01;102033.41;;;10.46;97.57
64886;BME280;51514;52.206;5.114;2023-02-19T05:20:27;102047.75;;;10.47;96.86
64886;BME280;51514;52.206;5.114;2023-02-19T05:22:52;102050.69;;;10.44;97.07
64886;BME280;51514;52.206;5.114;2023-02-19T05:25:17;102055.25;;;10.43;96.75
64886;BME280;51514;52.206;5.114;2023-02-19T05:27:43;102055.97;;;10.45;96.42
64886;BME280;51514;52.206;5.114;2023-02-19T05:30:09;102054.00;;;10.47;96.48
64886;BME280;51514;52.206;5.114;2023-02-19T05:32:35;102050.59;;;10.45;96.20
64886;BME280;51514;52.206;5.114;2023-02-19T05:35:00;102046.78;;;10.48;96.23
64886;BME280;51514;52.206;5.114;2023-02-19T05:37:26;102046.50;;;10.51;95.99
64886;BME280;51514;52.206;5.114;2023-02-19T05:39:51;102049.94;;;10.53;95.76
64886;BME280;51514;52.206;5.114;2023-02-19T05:42:16;102052.00;;;10.49;95.56
64886;BME280;51514;52.206;5.114;2023-02-19T05:44:42;102053.72;;;10.50;95.30
64886;BME280;51514;52.206;5.114;2023-02-19T05:47:07;102053.88;;;10.49;95.04
64886;BME280;51514;52.206;5.114;2023-02-19T05:49:33;102052.16;;;10.48;95.12
64886;BME280;51514;52.206;5.114;2023-02-19T05:51:58;102063.09;;;10.46;95.15
64886;BME280;51514;52.206;5.114;2023-02-19T05:54:23;102059.28;;;10.49;94.81
64886;BME280;51514;52.206;5.114;2023-02-19T05:56:49;102063.53;;;10.51;94.66
64886;BME280;51514;52.206;5.114;2023-02-19T05:59:20;102075.72;;;10.46;95.21
64886;BME280;51514;52.206;5.114;2023-02-19T06:01:47;102073.13;;;10.44;95.66
64886;BME280;51514;52.206;5.114;2023-02-19T06:04:13;102068.09;;;10.40;96.44
64886;BME280;51514;52.206;5.114;2023-02-19T06:06:40;102084.94;;;10.32;97.53
64886;BME280;51514;52.206;5.114;2023-02-19T06:09:06;102090.09;;;10.24;98.83
64886;BME280;51514;52.206;5.114;2023-02-19T06:11:32;102086.78;;;10.20;99.65
64886;BME280;51514;52.206;5.114;2023-02-19T06:13:58;102095.88;;;10.19;99.68
64886;BME280;51514;52.206;5.114;2023-02-19T06:16:23;102100.28;;;10.20;100.00
64886;BME280;51514;52.206;5.114;2023-02-19T06:18:49;102101.25;;;10.19;100.00
64886;BME280;51514;52.206;5.114;2023-02-19T06:21:15;102108.34;;;10.20;100.00
64886;BME280;51514;52.206;5.114;2023-02-19T06:23:42;102114.59;;;10.21;100.00
64886;BME280;51514;52.206;5.114;2023-02-19T06:28:41;102117.44;;;10.19;100.00
64886;BME280;51514;52.206;5.114;2023-02-19T06:31:08;102119.34;;;10.17;100.00
64886;BME280;51514;52.206;5.114;2023-02-19T06:33:33;102120.47;;;10.15;100.00
64886;BME280;51514;52.206;5.114;2023-02-19T06:36:01;102118.75;;;10.14;100.00
64886;BME280;51514;52.206;5.114;2023-02-19T06:38:27;102115.09;;;10.15;100.00
64886;BME280;51514;52.206;5.114;2023-02-19T06:40:53;102121.34;;;10.15;99.93
64886;BME280;51514;52.206;5.114;2023-02-19T06:43:18;102127.59;;;10.16;99.67
64886;BME280;51514;52.206;5.114;2023-02-19T06:45:43;102128.31;;;10.18;99.65
64886;BME280;51514;52.206;5.114;2023-02-19T06:48:09;102132.81;;;10.17;99.68
64886;BME280;51514;52.206;5.114;2023-02-19T06:50:34;102144.63;;;10.16;99.63
64886;BME280;51514;52.206;5.114;2023-02-19T06:53:00;102149.16;;;10.16;99.93
64886;BME280;51514;52.206;5.114;2023-02-19T06:55:25;102142.03;;;10.15;99.85
64886;BME280;51514;52.206;5.114;2023-02-19T06:57:50;102144.97;;;10.12;99.83
64886;BME280;51514;52.206;5.114;2023-02-19T07:00:16;102149.28;;;10.14;99.84
64886;BME280;51514;52.206;5.114;2023-02-19T07:02:42;102158.44;;;10.12;99.78
64886;BME280;51514;52.206;5.114;2023-02-19T07:05:07;102161.03;;;10.13;99.77
64886;BME280;51514;52.206;5.114;2023-02-19T07:07:32;102167.28;;;10.14;99.36
64886;BME280;51514;52.206;5.114;2023-02-19T07:09:58;102167.41;;;10.12;99.61
64886;BME280;51514;52.206;5.114;2023-02-19T07:12:23;102175.25;;;10.15;99.34
64886;BME280;51514;52.206;5.114;2023-02-19T07:14:48;102180.63;;;10.15;99.23
64886;BME280;51514;52.206;5.114;2023-02-19T07:17:14;102182.13;;;10.19;99.28
64886;BME280;51514;52.206;5.114;2023-02-19T07:19:39;102179.41;;;10.19;99.36
64886;BME280;51514;52.206;5.114;2023-02-19T07:22:04;102189.34;;;10.19;99.00
64886;BME280;51514;52.206;5.114;2023-02-19T07:24:30;102197.19;;;10.22;98.99
64886;BME280;51514;52.206;5.114;2023-02-19T07:26:55;102202.34;;;10.25;99.05
64886;BME280;51514;52.206;5.114;2023-02-19T07:29:20;102196.34;;;10.21;98.98
64886;BME280;51514;52.206;5.114;2023-02-19T07:31:46;102201.59;;;10.23;99.00
64886;BME280;51514;52.206;5.114;2023-02-19T07:34:11;102217.78;;;10.23;98.87
64886;BME280;51514;52.206;5.114;2023-02-19T07:36:36;102207.22;;;10.20;98.80
64886;BME280;51514;52.206;5.114;2023-02-19T07:39:02;102210.91;;;10.19;98.87
64886;BME280;51514;52.206;5.114;2023-02-19T07:41:27;102213.59;;;10.19;99.01
64886;BME280;51514;52.206;5.114;2023-02-19T07:43:53;102216.28;;;10.19;98.98
64886;BME280;51514;52.206;5.114;2023-02-19T07:46:19;102214.47;;;10.19;99.02
64886;BME280;51514;52.206;5.114;2023-02-19T07:48:44;102224.16;;;10.22;98.98
64886;BME280;51514;52.206;5.114;2023-02-19T07:51:15;102222.66;;;10.18;98.30
64886;BME280;51514;52.206;5.114;2023-02-19T07:53:44;102240.44;;;10.20;99.10
64886;BME280;51514;52.206;5.114;2023-02-19T07:56:12;102244.00;;;10.21;99.55
64886;BME280;51514;52.206;5.114;2023-02-19T07:58:38;102240.63;;;10.17;99.49
64886;BME280;51514;52.206;5.114;2023-02-19T08:03:32;102248.88;;;10.16;100.00
64886;BME280;51514;52.206;5.114;2023-02-19T08:05:58;102247.66;;;10.20;100.00
64886;BME280;51514;52.206;5.114;2023-02-19T08:08:23;102251.09;;;10.22;100.00
64886;BME280;51514;52.206;5.114;2023-02-19T08:10:48;102254.03;;;10.19;100.00
64886;BME280;51514;52.206;5.114;2023-02-19T08:13:32;102263.84;;;10.20;100.00
64886;BME280;51514;52.206;5.114;2023-02-19T08:18:25;102265.78;;;10.18;100.00
64886;BME280;51514;52.206;5.114;2023-02-19T08:20:51;102279.88;;;10.21;100.00
64886;BME280;51514;52.206;5.114;2023-02-19T08:23:17;102281.38;;;10.26;100.00
64886;BME280;51514;52.206;5.114;2023-02-19T08:25:45;102281.97;;;10.29;100.00
64886;BME280;51514;52.206;5.114;2023-02-19T08:28:11;102281.00;;;10.30;100.00
64886;BME280;51514;52.206;5.114;2023-02-19T08:30:37;102282.81;;;10.30;100.00
64886;BME280;51514;52.206;5.114;2023-02-19T08:33:05;102298.41;;;10.37;100.00
64886;BME280;51514;52.206;5.114;2023-02-19T08:35:31;102303.19;;;10.45;99.87
64886;BME280;51514;52.206;5.114;2023-02-19T08:37:57;102308.47;;;10.46;99.89
64886;BME280;51514;52.206;5.114;2023-02-19T08:40:23;102305.38;;;10.51;99.73
64886;BME280;51514;52.206;5.114;2023-02-19T08:42:49;102305.38;;;10.51;99.51
64886;BME280;51514;52.206;5.114;2023-02-19T08:45:14;102310.78;;;10.51;99.22
64886;BME280;51514;52.206;5.114;2023-02-19T08:47:39;102308.94;;;10.51;98.96
64886;BME280;51514;52.206;5.114;2023-02-19T08:50:06;102311.41;;;10.54;99.07
64886;BME280;51514;52.206;5.114;2023-02-19T08:52:32;102298.66;;;10.56;98.77
64886;BME280;51514;52.206;5.114;2023-02-19T08:54:58;102306.38;;;10.61;98.96
64886;BME280;51514;52.206;5.114;2023-02-19T08:57:23;102311.28;;;10.67;98.76
64886;BME280;51514;52.206;5.114;2023-02-19T08:59:49;102312.03;;;10.69;98.23
64886;BME280;51514;52.206;5.114;2023-02-19T09:02:14;102312.13;;;10.68;98.28
64886;BME280;51514;52.206;5.114;2023-02-19T09:04:40;102306.00;;;10.66;98.50
64886;BME280;51514;52.206;5.114;2023-02-19T09:07:05;102300.97;;;10.61;98.22
64886;BME280;51514;52.206;5.114;2023-02-19T09:09:35;102313.88;;;10.57;98.87
64886;BME280;51514;52.206;5.114;2023-02-19T09:12:03;102320.22;;;10.56;98.94
64886;BME280;51514;52.206;5.114;2023-02-19T09:14:31;102327.34;;;10.57;98.70
64886;BME280;51514;52.206;5.114;2023-02-19T09:16:56;102324.16;;;10.52;98.78
64886;BME280;51514;52.206;5.114;2023-02-19T09:19:22;102319.84;;;10.50;99.44
64886;BME280;51514;52.206;5.114;2023-02-19T09:21:47;102326.97;;;10.51;99.32
64886;BME280;51514;52.206;5.114;2023-02-19T09:24:12;102333.94;;;10.53;99.32
64886;BME280;51514;52.206;5.114;2023-02-19T09:26:38;102338.00;;;10.48;99.28
64886;BME280;51514;52.206;5.114;2023-02-19T09:29:03;102361.31;;;10.49;99.66
64886;BME280;51514;52.206;5.114;2023-02-19T09:31:28;102365.56;;;10.51;99.85
64886;BME280;51514;52.206;5.114;2023-02-19T09:33:54;102387.91;;;10.53;99.94
64886;BME280;51514;52.206;5.114;2023-02-19T09:36:19;102380.31;;;10.58;99.85
64886;BME280;51514;52.206;5.114;2023-02-19T09:38:44;102378.72;;;10.56;99.57
64886;BME280;51514;52.206;5.114;2023-02-19T09:41:22;102393.16;;;10.55;99.66
64886;BME280;51514;52.206;5.114;2023-02-19T09:43:50;102390.84;;;10.61;99.40
64886;BME280;51514;52.206;5.114;2023-02-19T09:46:23;102381.03;;;10.60;98.98
64886;BME280;51514;52.206;5.114;2023-02-19T09:48:52;102392.94;;;10.58;99.30
64886;BME280;51514;52.206;5.114;2023-02-19T09:51:20;102393.53;;;10.61;99.23
64886;BME280;51514;52.206;5.114;2023-02-19T09:53:48;102409.97;;;10.58;99.34
64886;BME280;51514;52.206;5.114;2023-02-19T09:56:15;102415.59;;;10.55;99.61
64886;BME280;51514;52.206;5.114;2023-02-19T09:58:49;102410.22;;;10.55;99.37
64886;BME280;51514;52.206;5.114;2023-02-19T10:01:17;102419.06;;;10.57;99.20
64886;BME280;51514;52.206;5.114;2023-02-19T10:03:45;102422.22;;;10.63;99.08
64886;BME280;51514;52.206;5.114;2023-02-19T10:06:21;102432.16;;;10.62;98.93
64886;BME280;51514;52.206;5.114;2023-02-19T10:08:50;102445.16;;;10.57;98.53
64886;BME280;51514;52.206;5.114;2023-02-19T10:11:16;102434.84;;;10.51;97.08
64886;BME280;51514;52.206;5.114;2023-02-19T10:16:15;102450.88;;;10.41;95.39
64886;BME280;51514;52.206;5.114;2023-02-19T10:18:43;102461.91;;;10.38;95.75
64886;BME280;51514;52.206;5.114;2023-02-19T10:21:21;102470.00;;;10.38;95.85
64886;BME280;51514;52.206;5.114;2023-02-19T10:23:52;102461.50;;;10.32;95.59
64886;BME280;51514;52.206;5.114;2023-02-19T10:26:18;102478.50;;;10.21;95.22
64886;BME280;51514;52.206;5.114;2023-02-19T10:28:43;102483.69;;;10.11;95.12
64886;BME280;51514;52.206;5.114;2023-02-19T10:31:18;102493.94;;;10.06;95.16
64886;BME280;51514;52.206;5.114;2023-02-19T10:33:52;102489.69;;;10.04;94.84
64886;BME280;51514;52.206;5.114;2023-02-19T10:36:38;102492.47;;;10.02;94.60
64886;BME280;51514;52.206;5.114;2023-02-19T10:41:48;102499.44;;;9.94;94.99
64886;BME280;51514;52.206;5.114;2023-02-19T10:44:21;102502.34;;;9.91;94.64
64886;BME280;51514;52.206;5.114;2023-02-19T10:46:50;102496.88;;;9.79;94.12
64886;BME280;51514;52.206;5.114;2023-02-19T10:51:45;102496.66;;;9.82;94.90
64886;BME280;51514;52.206;5.114;2023-02-19T10:54:27;102497.91;;;9.89;94.96
64886;BME280;51514;52.206;5.114;2023-02-19T10:56:53;102500.50;;;9.91;93.96
64886;BME280;51514;52.206;5.114;2023-02-19T10:59:24;102489.84;;;9.89;93.58
64886;BME280;51514;52.206;5.114;2023-02-19T11:01:58;102481.53;;;9.93;93.41
64886;BME280;51514;52.206;5.114;2023-02-19T11:04:25;102483.13;;;9.95;93.21
64886;BME280;51514;52.206;5.114;2023-02-19T11:06:51;102488.16;;;10.00;93.71
64886;BME280;51514;52.206;5.114;2023-02-19T11:09:40;102493.56;;;10.00;94.11
64886;BME280;51514;52.206;5.114;2023-02-19T11:12:10;102501.53;;;10.01;93.54
64886;BME280;51514;52.206;5.114;2023-02-19T11:14:41;102501.53;;;10.01;93.81
64886;BME280;51514;52.206;5.114;2023-02-19T11:17:21;102501.88;;;9.97;93.27
64886;BME280;51514;52.206;5.114;2023-02-19T11:19:50;102513.41;;;9.99;93.56
64886;BME280;51514;52.206;5.114;2023-02-19T11:22:39;102514.63;;;9.95;93.25
64886;BME280;51514;52.206;5.114;2023-02-19T11:27:34;102512.38;;;9.88;93.28
64886;BME280;51514;52.206;5.114;2023-02-19T11:30:42;102518.81;;;9.86;93.20
64886;BME280;51514;52.206;5.114;2023-02-19T11:35:42;102523.00;;;9.66;93.62
64886;BME280;51514;52.206;5.114;2023-02-19T11:38:10;102521.72;;;9.59;93.81
64886;BME280;51514;52.206;5.114;2023-02-19T11:40:51;102529.03;;;9.57;94.40
64886;BME280;51514;52.206;5.114;2023-02-19T11:43:32;102523.88;;;9.54;94.33
64886;BME280;51514;52.206;5.114;2023-02-19T11:46:15;102519.03;;;9.59;94.18
64886;BME280;51514;52.206;5.114;2023-02-19T11:54:09;102516.78;;;9.53;93.71
64886;BME280;51514;52.206;5.114;2023-02-19T11:56:40;102516.16;;;9.49;93.58
64886;BME280;51514;52.206;5.114;2023-02-19T11:59:22;102510.97;;;9.46;94.04
64886;BME280;51514;52.206;5.114;2023-02-19T12:02:26;102511.38;;;9.53;94.67
64886;BME280;51514;52.206;5.114;2023-02-19T12:05:08;102515.13;;;9.63;94.65
64886;BME280;51514;52.206;5.114;2023-02-19T12:16:14;102527.47;;;9.78;93.61
64886;BME280;51514;52.206;5.114;2023-02-19T12:26:44;102529.50;;;9.51;92.80
64886;BME280;51514;52.206;5.114;2023-02-19T12:29:27;102532.41;;;9.48;93.15
64886;BME280;51514;52.206;5.114;2023-02-19T12:32:25;102529.91;;;9.58;93.25
64886;BME280;51514;52.206;5.114;2023-02-19T12:45:23;102539.81;;;9.57;92.50
64886;BME280;51514;52.206;5.114;2023-02-19T12:48:00;102557.91;;;9.55;92.80
64886;BME280;51514;52.206;5.114;2023-02-19T12:50:28;102562.13;;;9.59;92.44
64886;BME280;51514;52.206;5.114;2023-02-19T12:53:00;102561.56;;;9.54;91.52
64886;BME280;51514;52.206;5.114;2023-02-19T12:55:31;102567.81;;;9.55;92.01
64886;BME280;51514;52.206;5.114;2023-02-19T12:58:01;102568.91;;;9.52;91.17
64886;BME280;51514;52.206;5.114;2023-02-19T13:03:12;102572.91;;;9.59;91.62
64886;BME280;51514;52.206;5.114;2023-02-19T13:06:08;102587.22;;;9.72;91.75
64886;BME280;51514;52.206;5.114;2023-02-19T13:11:21;102592.13;;;9.78;90.73
64886;BME280;51514;52.206;5.114;2023-02-19T13:16:52;102604.22;;;9.73;89.28
64886;BME280;51514;52.206;5.114;2023-02-19T13:19:20;102605.31;;;9.70;89.91
64886;BME280;51514;52.206;5.114;2023-02-19T13:21:46;102609.94;;;9.68;89.81
64886;BME280;51514;52.206;5.114;2023-02-19T13:24:35;102609.16;;;9.66;89.70
64886;BME280;51514;52.206;5.114;2023-02-19T13:27:05;102605.72;;;9.64;89.17
64886;BME280;51514;52.206;5.114;2023-02-19T13:37:36;102624.38;;;9.67;87.58
64886;BME280;51514;52.206;5.114;2023-02-19T13:40:05;102625.13;;;9.69;87.42
64886;BME280;51514;52.206;5.114;2023-02-19T13:42:50;102628.56;;;9.71;86.67
64886;BME280;51514;52.206;5.114;2023-02-19T13:45:23;102631.94;;;9.62;85.86
64886;BME280;51514;52.206;5.114;2023-02-19T13:52:49;102642.56;;;9.64;85.25
64886;BME280;51514;52.206;5.114;2023-02-19T13:58:55;102644.09;;;9.55;82.93
64886;BME280;51514;52.206;5.114;2023-02-19T14:14:50;102647.44;;;9.71;82.63
64886;BME280;51514;52.206;5.114;2023-02-19T14:25:28;102631.38;;;9.57;83.47
64886;BME280;51514;52.206;5.114;2023-02-19T14:30:44;102631.16;;;9.60;84.09
64886;BME280;51514;52.206;5.114;2023-02-19T14:33:11;102618.88;;;9.56;83.73
64886;BME280;51514;52.206;5.114;2023-02-19T14:35:44;102626.00;;;9.57;84.21
64886;BME280;51514;52.206;5.114;2023-02-19T14:38:31;102618.88;;;9.56;84.16
64886;BME280;51514;52.206;5.114;2023-02-19T14:40:57;102613.06;;;9.62;85.14
64886;BME280;51514;52.206;5.114;2023-02-19T14:43:24;102609.94;;;9.68;85.11
64886;BME280;51514;52.206;5.114;2023-02-19T14:45:56;102597.97;;;9.72;85.48
64886;BME280;51514;52.206;5.114;2023-02-19T14:48:27;102605.09;;;9.73;85.28
64886;BME280;51514;52.206;5.114;2023-02-19T14:50:59;102603.13;;;9.75;85.58
64886;BME280;51514;52.206;5.114;2023-02-19T14:53:27;102607.44;;;9.78;86.08
64886;BME280;51514;52.206;5.114;2023-02-19T14:55:54;102600.31;;;9.77;86.18
64886;BME280;51514;52.206;5.114;2023-02-19T14:58:27;102596.78;;;9.76;86.48
64886;BME280;51514;52.206;5.114;2023-02-19T15:00:54;102594.31;;;9.73;86.17
64886;BME280;51514;52.206;5.114;2023-02-19T15:03:31;102599.25;;;9.79;86.83